sensor_id;sensor_type;location;lat;lon;timestamp;P1;durP1;ratioP1;P2;durP2;ratioP2
52035;SDS011;38046;49.448;32.074;2022-09-23T00:00:19;3.05;;;2.70;;
52035;SDS011;38046;49.448;32.074;2022-09-23T00:02:45;3.67;;;2.90;;
52035;SDS011;38046;49.448;32.074;2022-09-23T00:05:17;2.95;;;2.60;;
52035;SDS011;38046;49.448;32.074;2022-09-23T00:07:42;3.10;;;2.53;;
52035;SDS011;38046;49.448;32.074;2022-09-23T00:10:08;2.72;;;2.35;;
52035;SDS011;38046;49.448;32.074;2022-09-23T00:12:34;2.72;;;2.28;;
52035;SDS011;38046;49.448;32.074;2022-09-23T00:15:00;3.75;;;2.80;;
52035;SDS011;38046;49.448;32.074;2022-09-23T00:17:26;2.85;;;2.30;;
52035;SDS011;38046;49.448;32.074;2022-09-23T00:19:52;2.85;;;2.40;;
52035;SDS011;38046;49.448;32.074;2022-09-23T00:22:19;3.25;;;2.60;;
52035;SDS011;38046;49.448;32.074;2022-09-23T00:24:45;2.67;;;2.47;;
52035;SDS011;38046;49.448;32.074;2022-09-23T00:27:10;2.42;;;2.22;;
52035;SDS011;38046;49.448;32.074;2022-09-23T00:29:37;3.55;;;2.75;;
52035;SDS011;38046;49.448;32.074;2022-09-23T00:32:02;2.40;;;2.20;;
52035;SDS011;38046;49.448;32.074;2022-09-23T00:34:29;2.63;;;2.42;;
52035;SDS011;38046;49.448;32.074;2022-09-23T00:36:54;4.82;;;2.63;;
52035;SDS011;38046;49.448;32.074;2022-09-23T00:39:21;3.45;;;2.60;;
52035;SDS011;38046;49.448;32.074;2022-09-23T00:41:48;2.55;;;2.30;;
52035;SDS011;38046;49.448;32.074;2022-09-23T00:47:04;3.60;;;2.70;;
52035;SDS011;38046;49.448;32.074;2022-09-23T00:49:38;3.05;;;2.72;;
52035;SDS011;38046;49.448;32.074;2022-09-23T00:52:05;2.67;;;2.47;;
52035;SDS011;38046;49.448;32.074;2022-09-23T00:54:38;2.75;;;2.30;;
52035;SDS011;38046;49.448;32.074;2022-09-23T00:57:04;3.08;;;2.70;;
52035;SDS011;38046;49.448;32.074;2022-09-23T00:59:31;3.00;;;2.40;;
52035;SDS011;38046;49.448;32.074;2022-09-23T01:01:57;3.47;;;2.55;;
52035;SDS011;38046;49.448;32.074;2022-09-23T01:04:26;2.97;;;2.50;;
52035;SDS011;38046;49.448;32.074;2022-09-23T01:06:54;2.88;;;2.45;;
52035;SDS011;38046;49.448;32.074;2022-09-23T01:09:19;3.40;;;2.50;;
52035;SDS011;38046;49.448;32.074;2022-09-23T01:22:38;2.90;;;2.50;;
52035;SDS011;38046;49.448;32.074;2022-09-23T01:25:26;3.28;;;2.53;;
52035;SDS011;38046;49.448;32.074;2022-09-23T01:28:03;3.22;;;2.50;;
52035;SDS011;38046;49.448;32.074;2022-09-23T01:33:40;2.97;;;2.67;;
52035;SDS011;38046;49.448;32.074;2022-09-23T01:36:30;3.20;;;2.75;;
52035;SDS011;38046;49.448;32.074;2022-09-23T01:39:36;3.65;;;3.05;;
52035;SDS011;38046;49.448;32.074;2022-09-23T01:44:47;3.22;;;2.63;;
52035;SDS011;38046;49.448;32.074;2022-09-23T01:47:21;3.90;;;3.20;;
52035;SDS011;38046;49.448;32.074;2022-09-23T01:50:05;2.90;;;2.60;;
52035;SDS011;38046;49.448;32.074;2022-09-23T01:52:53;3.97;;;3.00;;
52035;SDS011;38046;49.448;32.074;2022-09-23T01:55:29;3.08;;;2.67;;
52035;SDS011;38046;49.448;32.074;2022-09-23T01:58:01;5.05;;;3.15;;
52035;SDS011;38046;49.448;32.074;2022-09-23T02:00:33;2.83;;;2.50;;
52035;SDS011;38046;49.448;32.074;2022-09-23T02:03:08;2.75;;;2.45;;
52035;SDS011;38046;49.448;32.074;2022-09-23T02:05:43;3.50;;;2.75;;
52035;SDS011;38046;49.448;32.074;2022-09-23T02:08:13;2.95;;;2.60;;
52035;SDS011;38046;49.448;32.074;2022-09-23T02:10:57;2.72;;;2.53;;
52035;SDS011;38046;49.448;32.074;2022-09-23T02:16:15;2.50;;;2.30;;
52035;SDS011;38046;49.448;32.074;2022-09-23T02:18:58;3.03;;;2.38;;
52035;SDS011;38046;49.448;32.074;2022-09-23T02:21:31;2.65;;;2.40;;
52035;SDS011;38046;49.448;32.074;2022-09-23T02:24:09;2.97;;;2.60;;
52035;SDS011;38046;49.448;32.074;2022-09-23T02:29:31;2.70;;;2.30;;
52035;SDS011;38046;49.448;32.074;2022-09-23T02:37:47;2.78;;;2.30;;
52035;SDS011;38046;49.448;32.074;2022-09-23T02:40:29;3.05;;;2.70;;
52035;SDS011;38046;49.448;32.074;2022-09-23T02:43:13;3.10;;;2.55;;
52035;SDS011;38046;49.448;32.074;2022-09-23T02:45:53;2.78;;;2.42;;
52035;SDS011;38046;49.448;32.074;2022-09-23T02:48:24;3.25;;;2.58;;
52035;SDS011;38046;49.448;32.074;2022-09-23T02:50:54;2.88;;;2.50;;
52035;SDS011;38046;49.448;32.074;2022-09-23T02:53:23;2.58;;;2.38;;
52035;SDS011;38046;49.448;32.074;2022-09-23T02:55:49;2.97;;;2.67;;
52035;SDS011;38046;49.448;32.074;2022-09-23T02:58:15;2.83;;;2.53;;
52035;SDS011;38046;49.448;32.074;2022-09-23T03:06:51;3.15;;;2.60;;
52035;SDS011;38046;49.448;32.074;2022-09-23T03:10:23;2.80;;;2.60;;
52035;SDS011;38046;49.448;32.074;2022-09-23T03:18:32;2.80;;;2.50;;
52035;SDS011;38046;49.448;32.074;2022-09-23T03:21:06;3.60;;;2.63;;
52035;SDS011;38046;49.448;32.074;2022-09-23T03:23:39;2.72;;;2.50;;
52035;SDS011;38046;49.448;32.074;2022-09-23T03:26:10;3.72;;;2.60;;
52035;SDS011;38046;49.448;32.074;2022-09-23T03:28:44;3.17;;;2.45;;
52035;SDS011;38046;49.448;32.074;2022-09-23T03:31:11;2.42;;;2.08;;
52035;SDS011;38046;49.448;32.074;2022-09-23T03:33:39;3.17;;;2.70;;
52035;SDS011;38046;49.448;32.074;2022-09-23T03:36:07;2.65;;;2.45;;
52035;SDS011;38046;49.448;32.074;2022-09-23T03:38:56;3.25;;;2.67;;
52035;SDS011;38046;49.448;32.074;2022-09-23T03:41:31;2.65;;;2.38;;
52035;SDS011;38046;49.448;32.074;2022-09-23T03:44:02;3.75;;;3.00;;
52035;SDS011;38046;49.448;32.074;2022-09-23T03:46:31;3.85;;;3.28;;
52035;SDS011;38046;49.448;32.074;2022-09-23T03:49:02;3.60;;;2.80;;
52035;SDS011;38046;49.448;32.074;2022-09-23T03:51:43;3.78;;;3.00;;
52035;SDS011;38046;49.448;32.074;2022-09-23T03:54:09;3.67;;;2.83;;
52035;SDS011;38046;49.448;32.074;2022-09-23T03:56:35;4.10;;;3.38;;
52035;SDS011;38046;49.448;32.074;2022-09-23T03:59:01;3.55;;;2.95;;
52035;SDS011;38046;49.448;32.074;2022-09-23T04:01:27;3.10;;;2.80;;
52035;SDS011;38046;49.448;32.074;2022-09-23T04:03:53;3.53;;;2.90;;
52035;SDS011;38046;49.448;32.074;2022-09-23T04:06:19;3.75;;;3.10;;
52035;SDS011;38046;49.448;32.074;2022-09-23T04:08:45;3.00;;;2.70;;
52035;SDS011;38046;49.448;32.074;2022-09-23T04:11:10;3.00;;;2.70;;
52035;SDS011;38046;49.448;32.074;2022-09-23T04:13:36;2.83;;;2.63;;
52035;SDS011;38046;49.448;32.074;2022-09-23T04:16:02;4.35;;;3.20;;
52035;SDS011;38046;49.448;32.074;2022-09-23T04:18:28;3.55;;;3.15;;
52035;SDS011;38046;49.448;32.074;2022-09-23T04:20:59;3.85;;;3.25;;
52035;SDS011;38046;49.448;32.074;2022-09-23T04:23:25;3.92;;;3.38;;
52035;SDS011;38046;49.448;32.074;2022-09-23T04:25:51;4.57;;;3.67;;
52035;SDS011;38046;49.448;32.074;2022-09-23T04:28:17;4.82;;;3.60;;
52035;SDS011;38046;49.448;32.074;2022-09-23T04:30:43;4.55;;;3.58;;
52035;SDS011;38046;49.448;32.074;2022-09-23T04:33:10;4.72;;;3.75;;
52035;SDS011;38046;49.448;32.074;2022-09-23T04:35:37;5.18;;;3.75;;
52035;SDS011;38046;49.448;32.074;2022-09-23T04:38:04;5.00;;;3.47;;
52035;SDS011;38046;49.448;32.074;2022-09-23T04:40:31;4.22;;;3.42;;
52035;SDS011;38046;49.448;32.074;2022-09-23T04:42:57;5.05;;;3.72;;
52035;SDS011;38046;49.448;32.074;2022-09-23T04:45:22;5.63;;;4.07;;
52035;SDS011;38046;49.448;32.074;2022-09-23T04:47:48;4.40;;;3.80;;
52035;SDS011;38046;49.448;32.074;2022-09-23T04:50:14;5.50;;;4.30;;
52035;SDS011;38046;49.448;32.074;2022-09-23T04:52:40;6.25;;;4.75;;
52035;SDS011;38046;49.448;32.074;2022-09-23T04:55:06;6.32;;;4.35;;
52035;SDS011;38046;49.448;32.074;2022-09-23T04:57:32;5.95;;;4.45;;
52035;SDS011;38046;49.448;32.074;2022-09-23T04:59:58;5.47;;;4.20;;
52035;SDS011;38046;49.448;32.074;2022-09-23T05:02:25;5.75;;;4.50;;
52035;SDS011;38046;49.448;32.074;2022-09-23T05:04:52;7.28;;;4.43;;
52035;SDS011;38046;49.448;32.074;2022-09-23T05:07:18;6.10;;;4.90;;
52035;SDS011;38046;49.448;32.074;2022-09-23T05:09:44;5.78;;;4.53;;
52035;SDS011;38046;49.448;32.074;2022-09-23T05:12:09;6.05;;;4.53;;
52035;SDS011;38046;49.448;32.074;2022-09-23T05:14:35;5.78;;;4.68;;
52035;SDS011;38046;49.448;32.074;2022-09-23T05:17:03;6.68;;;4.82;;
52035;SDS011;38046;49.448;32.074;2022-09-23T05:19:29;4.90;;;4.10;;
52035;SDS011;38046;49.448;32.074;2022-09-23T05:21:54;5.53;;;4.38;;
52035;SDS011;38046;49.448;32.074;2022-09-23T05:24:20;6.10;;;5.03;;
52035;SDS011;38046;49.448;32.074;2022-09-23T05:26:46;6.35;;;4.85;;
52035;SDS011;38046;49.448;32.074;2022-09-23T05:29:12;5.97;;;4.63;;
52035;SDS011;38046;49.448;32.074;2022-09-23T05:31:38;6.07;;;4.57;;
52035;SDS011;38046;49.448;32.074;2022-09-23T05:34:04;6.75;;;4.65;;
52035;SDS011;38046;49.448;32.074;2022-09-23T05:36:31;5.03;;;4.18;;
52035;SDS011;38046;49.448;32.074;2022-09-23T05:38:57;6.07;;;4.63;;
52035;SDS011;38046;49.448;32.074;2022-09-23T05:41:23;5.57;;;4.40;;
52035;SDS011;38046;49.448;32.074;2022-09-23T05:43:50;6.00;;;4.50;;
52035;SDS011;38046;49.448;32.074;2022-09-23T05:46:21;5.20;;;4.18;;
52035;SDS011;38046;49.448;32.074;2022-09-23T05:48:48;6.75;;;4.85;;
52035;SDS011;38046;49.448;32.074;2022-09-23T05:51:15;5.55;;;4.35;;
52035;SDS011;38046;49.448;32.074;2022-09-23T05:53:42;5.85;;;4.80;;
52035;SDS011;38046;49.448;32.074;2022-09-23T05:56:12;5.60;;;4.40;;
52035;SDS011;38046;49.448;32.074;2022-09-23T05:58:39;6.50;;;4.82;;
52035;SDS011;38046;49.448;32.074;2022-09-23T06:01:09;6.82;;;5.03;;
52035;SDS011;38046;49.448;32.074;2022-09-23T06:03:35;6.65;;;4.85;;
52035;SDS011;38046;49.448;32.074;2022-09-23T06:06:02;6.00;;;4.93;;
52035;SDS011;38046;49.448;32.074;2022-09-23T06:08:27;6.53;;;4.90;;
52035;SDS011;38046;49.448;32.074;2022-09-23T06:10:53;6.85;;;4.85;;
52035;SDS011;38046;49.448;32.074;2022-09-23T06:13:18;5.90;;;4.93;;
52035;SDS011;38046;49.448;32.074;2022-09-23T06:15:44;7.43;;;5.22;;
52035;SDS011;38046;49.448;32.074;2022-09-23T06:18:10;7.68;;;6.13;;
52035;SDS011;38046;49.448;32.074;2022-09-23T06:20:36;6.15;;;5.45;;
52035;SDS011;38046;49.448;32.074;2022-09-23T06:23:06;7.32;;;5.10;;
52035;SDS011;38046;49.448;32.074;2022-09-23T06:25:34;7.45;;;6.00;;
52035;SDS011;38046;49.448;32.074;2022-09-23T06:28:02;7.15;;;4.93;;
52035;SDS011;38046;49.448;32.074;2022-09-23T06:30:28;7.55;;;5.43;;
52035;SDS011;38046;49.448;32.074;2022-09-23T06:32:55;6.20;;;5.13;;
52035;SDS011;38046;49.448;32.074;2022-09-23T06:35:23;6.25;;;5.40;;
52035;SDS011;38046;49.448;32.074;2022-09-23T06:37:50;7.93;;;5.63;;
52035;SDS011;38046;49.448;32.074;2022-09-23T06:40:17;9.38;;;6.45;;
52035;SDS011;38046;49.448;32.074;2022-09-23T06:42:43;8.05;;;6.00;;
52035;SDS011;38046;49.448;32.074;2022-09-23T06:45:10;6.72;;;5.18;;
52035;SDS011;38046;49.448;32.074;2022-09-23T06:47:37;8.90;;;5.78;;
52035;SDS011;38046;49.448;32.074;2022-09-23T06:50:03;7.22;;;5.63;;
52035;SDS011;38046;49.448;32.074;2022-09-23T06:52:30;7.80;;;5.97;;
52035;SDS011;38046;49.448;32.074;2022-09-23T06:54:56;6.30;;;5.05;;
52035;SDS011;38046;49.448;32.074;2022-09-23T06:57:21;6.32;;;4.70;;
52035;SDS011;38046;49.448;32.074;2022-09-23T06:59:48;6.88;;;5.25;;
52035;SDS011;38046;49.448;32.074;2022-09-23T07:02:14;8.25;;;5.97;;
52035;SDS011;38046;49.448;32.074;2022-09-23T07:04:40;7.72;;;5.75;;
52035;SDS011;38046;49.448;32.074;2022-09-23T07:07:05;8.88;;;6.95;;
52035;SDS011;38046;49.448;32.074;2022-09-23T07:09:31;10.55;;;7.50;;
52035;SDS011;38046;49.448;32.074;2022-09-23T07:11:57;10.05;;;7.68;;
52035;SDS011;38046;49.448;32.074;2022-09-23T07:14:22;11.20;;;7.47;;
52035;SDS011;38046;49.448;32.074;2022-09-23T07:16:48;10.02;;;7.28;;
52035;SDS011;38046;49.448;32.074;2022-09-23T07:19:17;9.93;;;6.95;;
52035;SDS011;38046;49.448;32.074;2022-09-23T07:21:43;10.70;;;8.00;;
52035;SDS011;38046;49.448;32.074;2022-09-23T07:24:09;10.25;;;7.18;;
52035;SDS011;38046;49.448;32.074;2022-09-23T07:26:34;12.88;;;8.60;;
52035;SDS011;38046;49.448;32.074;2022-09-23T07:29:00;12.82;;;8.48;;
52035;SDS011;38046;49.448;32.074;2022-09-23T07:31:29;13.00;;;9.30;;
52035;SDS011;38046;49.448;32.074;2022-09-23T07:33:56;10.77;;;7.50;;
52035;SDS011;38046;49.448;32.074;2022-09-23T07:36:23;11.35;;;7.85;;
52035;SDS011;38046;49.448;32.074;2022-09-23T07:38:51;11.07;;;7.90;;
52035;SDS011;38046;49.448;32.074;2022-09-23T07:41:19;13.35;;;8.38;;
52035;SDS011;38046;49.448;32.074;2022-09-23T07:43:45;10.85;;;7.93;;
52035;SDS011;38046;49.448;32.074;2022-09-23T07:46:12;11.15;;;8.10;;
52035;SDS011;38046;49.448;32.074;2022-09-23T07:48:41;9.50;;;7.20;;
52035;SDS011;38046;49.448;32.074;2022-09-23T07:51:26;10.60;;;8.10;;
52035;SDS011;38046;49.448;32.074;2022-09-23T07:53:54;10.90;;;7.50;;
52035;SDS011;38046;49.448;32.074;2022-09-23T07:56:22;9.88;;;7.13;;
52035;SDS011;38046;49.448;32.074;2022-09-23T07:58:49;9.05;;;6.60;;
52035;SDS011;38046;49.448;32.074;2022-09-23T08:01:24;9.50;;;6.65;;
52035;SDS011;38046;49.448;32.074;2022-09-23T08:04:00;8.38;;;6.38;;
52035;SDS011;38046;49.448;32.074;2022-09-23T08:06:38;10.02;;;7.78;;
52035;SDS011;38046;49.448;32.074;2022-09-23T08:09:08;9.85;;;7.63;;
52035;SDS011;38046;49.448;32.074;2022-09-23T08:11:34;10.90;;;7.93;;
52035;SDS011;38046;49.448;32.074;2022-09-23T08:14:03;9.93;;;8.07;;
52035;SDS011;38046;49.448;32.074;2022-09-23T08:16:28;10.32;;;7.82;;
52035;SDS011;38046;49.448;32.074;2022-09-23T08:18:54;8.40;;;6.63;;
52035;SDS011;38046;49.448;32.074;2022-09-23T08:21:20;9.63;;;7.28;;
52035;SDS011;38046;49.448;32.074;2022-09-23T08:23:47;8.93;;;7.20;;
52035;SDS011;38046;49.448;32.074;2022-09-23T08:26:13;9.00;;;8.00;;
52035;SDS011;38046;49.448;32.074;2022-09-23T08:28:38;9.60;;;8.27;;
52035;SDS011;38046;49.448;32.074;2022-09-23T08:31:05;7.85;;;6.30;;
52035;SDS011;38046;49.448;32.074;2022-09-23T08:33:32;7.15;;;6.20;;
52035;SDS011;38046;49.448;32.074;2022-09-23T08:36:00;7.88;;;6.75;;
52035;SDS011;38046;49.448;32.074;2022-09-23T08:38:27;8.70;;;6.97;;
52035;SDS011;38046;49.448;32.074;2022-09-23T08:40:54;8.90;;;7.38;;
52035;SDS011;38046;49.448;32.074;2022-09-23T08:43:52;7.22;;;6.45;;
52035;SDS011;38046;49.448;32.074;2022-09-23T08:46:32;7.68;;;6.32;;
52035;SDS011;38046;49.448;32.074;2022-09-23T08:49:02;8.13;;;6.05;;
52035;SDS011;38046;49.448;32.074;2022-09-23T08:51:32;7.68;;;6.60;;
52035;SDS011;38046;49.448;32.074;2022-09-23T08:54:04;7.70;;;6.57;;
52035;SDS011;38046;49.448;32.074;2022-09-23T08:56:30;8.25;;;5.75;;
52035;SDS011;38046;49.448;32.074;2022-09-23T08:59:05;5.88;;;5.25;;
52035;SDS011;38046;49.448;32.074;2022-09-23T09:01:42;5.72;;;4.97;;
52035;SDS011;38046;49.448;32.074;2022-09-23T09:04:15;6.15;;;4.90;;
52035;SDS011;38046;49.448;32.074;2022-09-23T09:06:46;4.57;;;4.07;;
52035;SDS011;38046;49.448;32.074;2022-09-23T09:09:25;5.68;;;4.80;;
52035;SDS011;38046;49.448;32.074;2022-09-23T09:11:56;5.55;;;4.75;;
52035;SDS011;38046;49.448;32.074;2022-09-23T09:14:34;5.18;;;4.68;;
52035;SDS011;38046;49.448;32.074;2022-09-23T09:17:12;5.35;;;4.40;;
52035;SDS011;38046;49.448;32.074;2022-09-23T09:22:20;4.63;;;3.67;;
52035;SDS011;38046;49.448;32.074;2022-09-23T09:24:54;4.43;;;4.03;;
52035;SDS011;38046;49.448;32.074;2022-09-23T09:27:24;5.10;;;4.28;;
52035;SDS011;38046;49.448;32.074;2022-09-23T09:29:50;6.70;;;4.22;;
52035;SDS011;38046;49.448;32.074;2022-09-23T09:34:50;5.05;;;4.10;;
52035;SDS011;38046;49.448;32.074;2022-09-23T09:39:53;5.07;;;4.57;;
52035;SDS011;38046;49.448;32.074;2022-09-23T09:42:41;5.25;;;4.75;;
52035;SDS011;38046;49.448;32.074;2022-09-23T09:50:45;6.10;;;4.53;;
52035;SDS011;38046;49.448;32.074;2022-09-23T09:53:19;5.75;;;4.47;;
52035;SDS011;38046;49.448;32.074;2022-09-23T09:56:04;6.05;;;4.97;;
52035;SDS011;38046;49.448;32.074;2022-09-23T09:58:43;5.25;;;4.63;;
52035;SDS011;38046;49.448;32.074;2022-09-23T10:01:28;5.30;;;4.80;;
52035;SDS011;38046;49.448;32.074;2022-09-23T10:03:57;5.85;;;4.88;;
52035;SDS011;38046;49.448;32.074;2022-09-23T10:06:31;6.10;;;4.32;;
52035;SDS011;38046;49.448;32.074;2022-09-23T10:09:09;5.45;;;3.70;;
52035;SDS011;38046;49.448;32.074;2022-09-23T10:11:38;4.28;;;3.67;;
52035;SDS011;38046;49.448;32.074;2022-09-23T10:14:12;5.80;;;3.95;;
52035;SDS011;38046;49.448;32.074;2022-09-23T10:16:41;5.50;;;4.25;;
52035;SDS011;38046;49.448;32.074;2022-09-23T10:21:48;4.72;;;3.72;;
52035;SDS011;38046;49.448;32.074;2022-09-23T10:26:50;4.82;;;3.78;;
52035;SDS011;38046;49.448;32.074;2022-09-23T10:32:12;5.13;;;4.22;;
52035;SDS011;38046;49.448;32.074;2022-09-23T10:34:53;5.70;;;4.47;;
52035;SDS011;38046;49.448;32.074;2022-09-23T10:37:24;6.65;;;5.15;;
52035;SDS011;38046;49.448;32.074;2022-09-23T10:39:56;6.40;;;4.68;;
52035;SDS011;38046;49.448;32.074;2022-09-23T10:45:32;6.65;;;4.85;;
52035;SDS011;38046;49.448;32.074;2022-09-23T10:51:12;5.93;;;4.65;;
52035;SDS011;38046;49.448;32.074;2022-09-23T10:56:38;4.70;;;3.90;;
52035;SDS011;38046;49.448;32.074;2022-09-23T11:02:24;4.18;;;3.47;;
52035;SDS011;38046;49.448;32.074;2022-09-23T11:07:46;3.92;;;3.28;;
52035;SDS011;38046;49.448;32.074;2022-09-23T11:18:47;4.18;;;3.53;;
52035;SDS011;38046;49.448;32.074;2022-09-23T11:22:02;4.50;;;3.83;;
52035;SDS011;38046;49.448;32.074;2022-09-23T11:24:33;3.70;;;3.30;;
52035;SDS011;38046;49.448;32.074;2022-09-23T11:32:25;2.78;;;2.58;;
52035;SDS011;38046;49.448;32.074;2022-09-23T11:37:28;2.60;;;2.40;;
52035;SDS011;38046;49.448;32.074;2022-09-23T11:42:55;3.13;;;2.50;;
52035;SDS011;38046;49.448;32.074;2022-09-23T11:45:29;2.50;;;2.30;;
52035;SDS011;38046;49.448;32.074;2022-09-23T11:48:01;3.25;;;2.45;;
52035;SDS011;38046;49.448;32.074;2022-09-23T11:50:35;2.75;;;2.50;;
52035;SDS011;38046;49.448;32.074;2022-09-23T11:53:51;2.53;;;2.33;;
52035;SDS011;38046;49.448;32.074;2022-09-23T11:55:59;2.30;;;2.10;;
52035;SDS011;38046;49.448;32.074;2022-09-23T11:58:30;2.80;;;2.55;;
52035;SDS011;38046;49.448;32.074;2022-09-23T12:01:06;3.58;;;3.13;;
52035;SDS011;38046;49.448;32.074;2022-09-23T12:06:14;4.40;;;3.30;;
52035;SDS011;38046;49.448;32.074;2022-09-23T12:08:44;4.00;;;3.22;;
52035;SDS011;38046;49.448;32.074;2022-09-23T12:16:37;4.28;;;3.00;;
52035;SDS011;38046;49.448;32.074;2022-09-23T12:21:58;3.10;;;2.80;;
52035;SDS011;38046;49.448;32.074;2022-09-23T12:25:10;4.35;;;3.35;;
52035;SDS011;38046;49.448;32.074;2022-09-23T12:28:03;3.75;;;3.13;;
52035;SDS011;38046;49.448;32.074;2022-09-23T12:30:34;4.05;;;3.10;;
52035;SDS011;38046;49.448;32.074;2022-09-23T12:33:08;3.65;;;2.92;;
52035;SDS011;38046;49.448;32.074;2022-09-23T12:35:52;4.20;;;3.13;;
52035;SDS011;38046;49.448;32.074;2022-09-23T12:38:48;4.38;;;3.30;;
52035;SDS011;38046;49.448;32.074;2022-09-23T12:46:23;5.32;;;3.85;;
52035;SDS011;38046;49.448;32.074;2022-09-23T12:51:29;4.50;;;3.30;;
52035;SDS011;38046;49.448;32.074;2022-09-23T13:01:41;2.25;;;2.05;;
52035;SDS011;38046;49.448;32.074;2022-09-23T13:07:15;2.30;;;2.10;;
52035;SDS011;38046;49.448;32.074;2022-09-23T13:09:47;3.35;;;2.40;;
52035;SDS011;38046;49.448;32.074;2022-09-23T13:12:28;3.40;;;2.75;;
52035;SDS011;38046;49.448;32.074;2022-09-23T13:14:57;3.78;;;2.97;;
52035;SDS011;38046;49.448;32.074;2022-09-23T13:17:31;4.13;;;3.30;;
52035;SDS011;38046;49.448;32.074;2022-09-23T13:20:04;4.38;;;3.20;;
52035;SDS011;38046;49.448;32.074;2022-09-23T13:25:25;4.03;;;3.08;;
52035;SDS011;38046;49.448;32.074;2022-09-23T13:30:25;2.60;;;2.40;;
52035;SDS011;38046;49.448;32.074;2022-09-23T13:33:10;3.42;;;2.30;;
52035;SDS011;38046;49.448;32.074;2022-09-23T13:35:41;2.58;;;2.22;;
52035;SDS011;38046;49.448;32.074;2022-09-23T13:38:15;2.78;;;2.45;;
52035;SDS011;38046;49.448;32.074;2022-09-23T13:40:44;2.75;;;2.53;;
52035;SDS011;38046;49.448;32.074;2022-09-23T13:43:21;2.30;;;2.10;;
52035;SDS011;38046;49.448;32.074;2022-09-23T13:45:55;2.60;;;2.40;;
52035;SDS011;38046;49.448;32.074;2022-09-23T13:48:22;2.25;;;2.05;;
52035;SDS011;38046;49.448;32.074;2022-09-23T13:50:50;2.63;;;2.42;;
52035;SDS011;38046;49.448;32.074;2022-09-23T13:53:27;2.35;;;2.15;;
52035;SDS011;38046;49.448;32.074;2022-09-23T13:56:02;2.67;;;2.35;;
52035;SDS011;38046;49.448;32.074;2022-09-23T14:01:02;2.92;;;2.58;;
52035;SDS011;38046;49.448;32.074;2022-09-23T14:03:36;3.25;;;2.50;;
52035;SDS011;38046;49.448;32.074;2022-09-23T14:06:09;2.60;;;2.37;;
52035;SDS011;38046;49.448;32.074;2022-09-23T14:08:43;3.25;;;2.65;;
52035;SDS011;38046;49.448;32.074;2022-09-23T14:11:14;3.00;;;2.70;;
52035;SDS011;38046;49.448;32.074;2022-09-23T14:14:01;3.28;;;2.55;;
52035;SDS011;38046;49.448;32.074;2022-09-23T14:16:31;3.47;;;2.85;;
52035;SDS011;38046;49.448;32.074;2022-09-23T14:19:02;3.10;;;2.70;;
52035;SDS011;38046;49.448;32.074;2022-09-23T14:21:29;3.90;;;3.10;;
52035;SDS011;38046;49.448;32.074;2022-09-23T14:24:04;3.50;;;2.90;;
52035;SDS011;38046;49.448;32.074;2022-09-23T14:26:46;2.97;;;2.67;;
52035;SDS011;38046;49.448;32.074;2022-09-23T14:29:25;4.25;;;2.92;;
52035;SDS011;38046;49.448;32.074;2022-09-23T14:31:55;3.83;;;3.13;;
52035;SDS011;38046;49.448;32.074;2022-09-23T14:34:41;3.63;;;3.20;;
52035;SDS011;38046;49.448;32.074;2022-09-23T14:40:12;4.40;;;3.30;;
52035;SDS011;38046;49.448;32.074;2022-09-23T14:42:39;3.40;;;3.10;;
52035;SDS011;38046;49.448;32.074;2022-09-23T14:45:09;3.78;;;3.17;;
52035;SDS011;38046;49.448;32.074;2022-09-23T14:47:45;3.55;;;3.10;;
52035;SDS011;38046;49.448;32.074;2022-09-23T14:50:17;3.15;;;2.85;;
52035;SDS011;38046;49.448;32.074;2022-09-23T14:53:00;4.65;;;3.35;;
52035;SDS011;38046;49.448;32.074;2022-09-23T14:55:51;4.28;;;3.22;;
52035;SDS011;38046;49.448;32.074;2022-09-23T15:03:51;5.10;;;3.65;;
52035;SDS011;38046;49.448;32.074;2022-09-23T15:06:18;4.45;;;3.65;;
52035;SDS011;38046;49.448;32.074;2022-09-23T15:08:46;5.10;;;4.00;;
52035;SDS011;38046;49.448;32.074;2022-09-23T15:11:12;4.57;;;3.67;;
52035;SDS011;38046;49.448;32.074;2022-09-23T15:13:41;4.28;;;3.75;;
52035;SDS011;38046;49.448;32.074;2022-09-23T15:16:11;4.60;;;3.67;;
52035;SDS011;38046;49.448;32.074;2022-09-23T15:18:39;4.28;;;3.42;;
52035;SDS011;38046;49.448;32.074;2022-09-23T15:21:13;4.30;;;3.53;;
52035;SDS011;38046;49.448;32.074;2022-09-23T15:26:16;5.50;;;4.03;;
52035;SDS011;38046;49.448;32.074;2022-09-23T15:28:42;4.28;;;3.80;;
52035;SDS011;38046;49.448;32.074;2022-09-23T15:31:15;5.22;;;4.00;;
52035;SDS011;38046;49.448;32.074;2022-09-23T15:33:42;5.07;;;4.22;;
52035;SDS011;38046;49.448;32.074;2022-09-23T15:36:15;5.85;;;4.72;;
52035;SDS011;38046;49.448;32.074;2022-09-23T15:38:42;7.03;;;5.55;;
52035;SDS011;38046;49.448;32.074;2022-09-23T15:41:07;7.03;;;5.45;;
52035;SDS011;38046;49.448;32.074;2022-09-23T15:43:33;7.18;;;5.20;;
52035;SDS011;38046;49.448;32.074;2022-09-23T15:46:03;6.97;;;5.65;;
52035;SDS011;38046;49.448;32.074;2022-09-23T15:48:41;7.90;;;5.78;;
52035;SDS011;38046;49.448;32.074;2022-09-23T15:51:15;7.97;;;6.13;;
52035;SDS011;38046;49.448;32.074;2022-09-23T15:53:41;7.72;;;5.78;;
52035;SDS011;38046;49.448;32.074;2022-09-23T15:56:06;7.35;;;5.43;;
52035;SDS011;38046;49.448;32.074;2022-09-23T15:58:32;7.93;;;5.78;;
52035;SDS011;38046;49.448;32.074;2022-09-23T16:00:57;7.65;;;5.95;;
52035;SDS011;38046;49.448;32.074;2022-09-23T16:03:25;8.40;;;6.20;;
52035;SDS011;38046;49.448;32.074;2022-09-23T16:05:55;6.75;;;5.25;;
52035;SDS011;38046;49.448;32.074;2022-09-23T16:08:26;7.38;;;5.80;;
52035;SDS011;38046;49.448;32.074;2022-09-23T16:10:53;7.97;;;5.80;;
52035;SDS011;38046;49.448;32.074;2022-09-23T16:13:19;8.15;;;6.30;;
52035;SDS011;38046;49.448;32.074;2022-09-23T16:15:45;8.13;;;6.00;;
52035;SDS011;38046;49.448;32.074;2022-09-23T16:18:11;7.30;;;5.85;;
52035;SDS011;38046;49.448;32.074;2022-09-23T16:20:41;6.88;;;5.18;;
52035;SDS011;38046;49.448;32.074;2022-09-23T16:25:58;6.75;;;5.20;;
52035;SDS011;38046;49.448;32.074;2022-09-23T16:28:28;6.25;;;4.85;;
52035;SDS011;38046;49.448;32.074;2022-09-23T16:30:53;6.25;;;5.20;;
52035;SDS011;38046;49.448;32.074;2022-09-23T16:33:19;7.40;;;4.95;;
52035;SDS011;38046;49.448;32.074;2022-09-23T16:35:44;6.80;;;4.57;;
52035;SDS011;38046;49.448;32.074;2022-09-23T16:38:10;5.80;;;4.53;;
52035;SDS011;38046;49.448;32.074;2022-09-23T16:40:36;4.97;;;3.95;;
52035;SDS011;38046;49.448;32.074;2022-09-23T16:43:01;6.65;;;5.00;;
52035;SDS011;38046;49.448;32.074;2022-09-23T16:45:29;5.70;;;4.32;;
52035;SDS011;38046;49.448;32.074;2022-09-23T16:47:55;5.65;;;4.53;;
52035;SDS011;38046;49.448;32.074;2022-09-23T16:50:21;6.55;;;4.40;;
52035;SDS011;38046;49.448;32.074;2022-09-23T16:52:48;5.68;;;4.32;;
52035;SDS011;38046;49.448;32.074;2022-09-23T16:55:21;5.03;;;4.10;;
52035;SDS011;38046;49.448;32.074;2022-09-23T16:57:49;5.28;;;4.30;;
52035;SDS011;38046;49.448;32.074;2022-09-23T17:00:15;5.55;;;4.07;;
52035;SDS011;38046;49.448;32.074;2022-09-23T17:03:00;5.97;;;3.92;;
52035;SDS011;38046;49.448;32.074;2022-09-23T17:05:46;5.85;;;4.32;;
52035;SDS011;38046;49.448;32.074;2022-09-23T17:08:13;5.63;;;4.28;;
52035;SDS011;38046;49.448;32.074;2022-09-23T17:10:40;5.10;;;3.85;;
52035;SDS011;38046;49.448;32.074;2022-09-23T17:13:07;5.95;;;4.47;;
52035;SDS011;38046;49.448;32.074;2022-09-23T17:15:36;4.93;;;4.07;;
52035;SDS011;38046;49.448;32.074;2022-09-23T17:18:04;4.85;;;3.92;;
52035;SDS011;38046;49.448;32.074;2022-09-23T17:20:30;4.85;;;3.95;;
52035;SDS011;38046;49.448;32.074;2022-09-23T17:22:56;5.07;;;3.97;;